sensor_id;sensor_type;location;lat;lon;timestamp;pressure;altitude;pressure_sealevel;temperature;humidity
46211;BME280;52144;48.040;-1.594;2023-01-27T00:00:59;102226.44;;;9.00;93.13
46211;BME280;52144;48.040;-1.594;2023-01-27T00:03:27;102220.13;;;9.08;92.02
46211;BME280;52144;48.040;-1.594;2023-01-27T00:05:56;102220.28;;;8.98;92.87
46211;BME280;52144;48.040;-1.594;2023-01-27T00:08:26;102235.47;;;8.90;92.94
46211;BME280;52144;48.040;-1.594;2023-01-27T00:10:56;102229.19;;;8.96;93.07
46211;BME280;52144;48.040;-1.594;2023-01-27T00:13:38;102231.00;;;8.94;93.70
46211;BME280;52144;48.040;-1.594;2023-01-27T00:16:06;102223.03;;;8.92;93.37
46211;BME280;52144;48.040;-1.594;2023-01-27T00:18:34;102227.50;;;8.90;92.45
46211;BME280;52144;48.040;-1.594;2023-01-27T00:21:03;102226.81;;;8.76;92.76
46211;BME280;52144;48.040;-1.594;2023-01-27T00:23:48;102231.38;;;8.66;93.84
46211;BME280;52144;48.040;-1.594;2023-01-27T00:26:34;102233.09;;;8.70;93.46
46211;BME280;52144;48.040;-1.594;2023-01-27T00:29:02;102230.44;;;8.70;94.43
46211;BME280;52144;48.040;-1.594;2023-01-27T00:31:29;102232.38;;;8.59;92.94
46211;BME280;52144;48.040;-1.594;2023-01-27T00:34:15;102220.13;;;8.47;94.29
46211;BME280;52144;48.040;-1.594;2023-01-27T00:36:44;102228.88;;;8.55;94.29
46211;BME280;52144;48.040;-1.594;2023-01-27T00:39:12;102222.84;;;8.39;94.63
46211;BME280;52144;48.040;-1.594;2023-01-27T00:41:40;102223.00;;;8.27;95.57
46211;BME280;52144;48.040;-1.594;2023-01-27T00:44:08;102225.56;;;8.33;95.52
46211;BME280;52144;48.040;-1.594;2023-01-27T00:46:39;102216.56;;;8.47;93.89
46211;BME280;52144;48.040;-1.594;2023-01-27T00:49:07;102214.84;;;8.44;93.68
46211;BME280;52144;48.040;-1.594;2023-01-27T00:51:36;102219.13;;;8.56;94.49
46211;BME280;52144;48.040;-1.594;2023-01-27T00:54:05;102218.16;;;8.60;93.88
46211;BME280;52144;48.040;-1.594;2023-01-27T00:56:33;102215.63;;;8.52;94.20
46211;BME280;52144;48.040;-1.594;2023-01-27T00:59:02;102220.84;;;8.58;93.55
46211;BME280;52144;48.040;-1.594;2023-01-27T01:01:31;102208.63;;;8.45;92.95
46211;BME280;52144;48.040;-1.594;2023-01-27T01:03:59;102205.94;;;8.48;93.00
46211;BME280;52144;48.040;-1.594;2023-01-27T01:06:27;102212.75;;;8.68;91.65
46211;BME280;52144;48.040;-1.594;2023-01-27T01:08:56;102214.75;;;8.52;92.21
46211;BME280;52144;48.040;-1.594;2023-01-27T01:11:25;102208.94;;;8.17;93.78
46211;BME280;52144;48.040;-1.594;2023-01-27T01:13:53;102215.97;;;8.23;94.00
46211;BME280;52144;48.040;-1.594;2023-01-27T01:16:23;102209.88;;;8.15;95.02
46211;BME280;52144;48.040;-1.594;2023-01-27T01:18:51;102209.41;;;8.53;93.25
46211;BME280;52144;48.040;-1.594;2023-01-27T01:21:19;102221.88;;;8.48;91.93
46211;BME280;52144;48.040;-1.594;2023-01-27T01:23:47;102217.50;;;8.42;93.19
46211;BME280;52144;48.040;-1.594;2023-01-27T01:26:16;102213.09;;;8.41;93.08
46211;BME280;52144;48.040;-1.594;2023-01-27T01:28:45;102213.78;;;8.59;91.60
46211;BME280;52144;48.040;-1.594;2023-01-27T01:31:15;102205.91;;;8.50;92.67
46211;BME280;52144;48.040;-1.594;2023-01-27T01:33:43;102199.03;;;8.30;93.65
46211;BME280;52144;48.040;-1.594;2023-01-27T01:36:12;102203.47;;;8.31;93.98
46211;BME280;52144;48.040;-1.594;2023-01-27T01:38:40;102206.22;;;8.22;94.56
46211;BME280;52144;48.040;-1.594;2023-01-27T01:41:11;102207.84;;;8.35;94.39
46211;BME280;52144;48.040;-1.594;2023-01-27T01:43:39;102208.59;;;8.48;93.88
46211;BME280;52144;48.040;-1.594;2023-01-27T01:46:10;102206.91;;;8.39;93.87
46211;BME280;52144;48.040;-1.594;2023-01-27T01:48:40;102203.28;;;8.47;93.52
46211;BME280;52144;48.040;-1.594;2023-01-27T01:51:11;102201.56;;;8.42;93.55
46211;BME280;52144;48.040;-1.594;2023-01-27T01:53:43;102209.66;;;8.32;94.76
46211;BME280;52144;48.040;-1.594;2023-01-27T01:56:15;102213.03;;;8.44;94.79
46211;BME280;52144;48.040;-1.594;2023-01-27T01:58:45;102217.66;;;8.29;96.22
46211;BME280;52144;48.040;-1.594;2023-01-27T02:01:16;102221.97;;;8.37;95.59
46211;BME280;52144;48.040;-1.594;2023-01-27T02:03:49;102223.44;;;7.90;99.67
46211;BME280;52144;48.040;-1.594;2023-01-27T02:06:18;102214.16;;;8.25;98.03
46211;BME280;52144;48.040;-1.594;2023-01-27T02:08:47;102215.97;;;8.23;97.59
46211;BME280;52144;48.040;-1.594;2023-01-27T02:11:16;102212.47;;;8.18;98.56
46211;BME280;52144;48.040;-1.594;2023-01-27T02:13:44;102208.97;;;8.16;98.47
46211;BME280;52144;48.040;-1.594;2023-01-27T02:16:12;102211.44;;;8.30;98.50
46211;BME280;52144;48.040;-1.594;2023-01-27T02:18:42;102199.97;;;8.26;97.44
46211;BME280;52144;48.040;-1.594;2023-01-27T02:21:09;102201.69;;;8.32;98.08
46211;BME280;52144;48.040;-1.594;2023-01-27T02:23:47;102206.19;;;8.27;97.87
46211;BME280;52144;48.040;-1.594;2023-01-27T02:26:20;102207.22;;;8.15;98.43
46211;BME280;52144;48.040;-1.594;2023-01-27T02:28:54;102198.31;;;8.19;98.04
46211;BME280;52144;48.040;-1.594;2023-01-27T02:31:23;102206.34;;;8.14;99.67
46211;BME280;52144;48.040;-1.594;2023-01-27T02:33:54;102210.94;;;8.00;99.59
46211;BME280;52144;48.040;-1.594;2023-01-27T02:36:26;102202.94;;;8.01;100.00
46211;BME280;52144;48.040;-1.594;2023-01-27T02:38:55;102206.31;;;8.16;99.82
46211;BME280;52144;48.040;-1.594;2023-01-27T02:41:28;102200.19;;;8.08;100.00
46211;BME280;52144;48.040;-1.594;2023-01-27T02:43:58;102193.88;;;8.21;99.79
46211;BME280;52144;48.040;-1.594;2023-01-27T02:46:26;102194.03;;;8.06;100.00
46211;BME280;52144;48.040;-1.594;2023-01-27T02:48:54;102196.69;;;8.06;100.00
46211;BME280;52144;48.040;-1.594;2023-01-27T02:51:22;102195.81;;;8.07;100.00
46211;BME280;52144;48.040;-1.594;2023-01-27T02:53:50;102194.78;;;8.17;100.00
46211;BME280;52144;48.040;-1.594;2023-01-27T02:56:18;102187.75;;;8.13;100.00
46211;BME280;52144;48.040;-1.594;2023-01-27T02:58:48;102193.25;;;7.97;100.00
46211;BME280;52144;48.040;-1.594;2023-01-27T03:01:15;102191.38;;;8.06;100.00
46211;BME280;52144;48.040;-1.594;2023-01-27T03:03:43;102185.25;;;8.02;100.00
46211;BME280;52144;48.040;-1.594;2023-01-27T03:06:13;102187.19;;;7.86;100.00
46211;BME280;52144;48.040;-1.594;2023-01-27T03:08:41;102184.31;;;8.04;100.00
46211;BME280;52144;48.040;-1.594;2023-01-27T03:11:10;102184.19;;;8.17;100.00
46211;BME280;52144;48.040;-1.594;2023-01-27T03:13:37;102185.03;;;8.17;100.00
46211;BME280;52144;48.040;-1.594;2023-01-27T03:16:07;102180.50;;;8.26;100.00
46211;BME280;52144;48.040;-1.594;2023-01-27T03:18:53;102174.25;;;8.30;100.00
46211;BME280;52144;48.040;-1.594;2023-01-27T03:21:22;102177.09;;;8.16;100.00
46211;BME280;52144;48.040;-1.594;2023-01-27T03:23:49;102171.50;;;8.37;100.00
46211;BME280;52144;48.040;-1.594;2023-01-27T03:26:17;102176.78;;;8.43;99.99
46211;BME280;52144;48.040;-1.594;2023-01-27T03:28:45;102181.44;;;8.24;100.00
46211;BME280;52144;48.040;-1.594;2023-01-27T03:31:34;102181.59;;;8.09;100.00
46211;BME280;52144;48.040;-1.594;2023-01-27T03:34:02;102181.44;;;8.23;100.00
46211;BME280;52144;48.040;-1.594;2023-01-27T03:36:30;102173.31;;;8.35;100.00
46211;BME280;52144;48.040;-1.594;2023-01-27T03:39:15;102171.53;;;8.34;100.00
46211;BME280;52144;48.040;-1.594;2023-01-27T03:42:01;102168.31;;;8.11;100.00
46211;BME280;52144;48.040;-1.594;2023-01-27T03:44:46;102164.97;;;7.96;100.00
46211;BME280;52144;48.040;-1.594;2023-01-27T03:47:33;102168.09;;;8.26;100.00
46211;BME280;52144;48.040;-1.594;2023-01-27T03:50:00;102160.53;;;7.95;100.00
46211;BME280;52144;48.040;-1.594;2023-01-27T03:52:28;102156.31;;;7.79;100.00
46211;BME280;52144;48.040;-1.594;2023-01-27T03:54:56;102162.44;;;7.84;100.00
46211;BME280;52144;48.040;-1.594;2023-01-27T03:57:24;102154.91;;;7.47;100.00
46211;BME280;52144;48.040;-1.594;2023-01-27T03:59:52;102170.69;;;7.59;100.00
46211;BME280;52144;48.040;-1.594;2023-01-27T04:02:19;102165.44;;;7.52;100.00
46211;BME280;52144;48.040;-1.594;2023-01-27T04:05:07;102158.47;;;7.43;100.00
46211;BME280;52144;48.040;-1.594;2023-01-27T04:07:52;102168.03;;;7.58;100.00
46211;BME280;52144;48.040;-1.594;2023-01-27T04:10:20;102163.72;;;7.49;100.00
46211;BME280;52144;48.040;-1.594;2023-01-27T04:12:48;102164.53;;;7.53;100.00
46211;BME280;52144;48.040;-1.594;2023-01-27T04:15:14;102160.28;;;7.39;100.00
46211;BME280;52144;48.040;-1.594;2023-01-27T04:17:43;102170.00;;;7.36;100.00
46211;BME280;52144;48.040;-1.594;2023-01-27T04:20:13;102163.59;;;7.61;100.00
46211;BME280;52144;48.040;-1.594;2023-01-27T04:22:41;102157.50;;;7.50;100.00
46211;BME280;52144;48.040;-1.594;2023-01-27T04:25:08;102159.66;;;7.93;99.06
46211;BME280;52144;48.040;-1.594;2023-01-27T04:27:38;102156.50;;;7.63;99.99
46211;BME280;52144;48.040;-1.594;2023-01-27T04:30:10;102155.56;;;7.64;100.00
46211;BME280;52144;48.040;-1.594;2023-01-27T04:32:37;102151.69;;;7.98;100.00
46211;BME280;52144;48.040;-1.594;2023-01-27T04:35:06;102155.44;;;7.75;100.00
46211;BME280;52144;48.040;-1.594;2023-01-27T04:37:35;102153.94;;;7.53;98.75
46211;BME280;52144;48.040;-1.594;2023-01-27T04:40:04;102149.53;;;7.53;100.00
46211;BME280;52144;48.040;-1.594;2023-01-27T04:42:32;102146.81;;;7.59;98.92
46211;BME280;52144;48.040;-1.594;2023-01-27T04:45:00;102148.47;;;7.70;98.18
46211;BME280;52144;48.040;-1.594;2023-01-27T04:47:28;102150.47;;;7.48;96.61
46211;BME280;52144;48.040;-1.594;2023-01-27T04:49:55;102155.91;;;7.34;98.80
46211;BME280;52144;48.040;-1.594;2023-01-27T04:52:23;102155.16;;;7.16;97.77
46211;BME280;52144;48.040;-1.594;2023-01-27T04:54:52;102161.00;;;7.52;98.52
46211;BME280;52144;48.040;-1.594;2023-01-27T04:57:20;102155.88;;;7.35;97.13
46211;BME280;52144;48.040;-1.594;2023-01-27T04:59:48;102157.47;;;7.53;96.05
46211;BME280;52144;48.040;-1.594;2023-01-27T05:02:16;102158.38;;;7.51;96.41
46211;BME280;52144;48.040;-1.594;2023-01-27T05:04:44;102148.91;;;7.25;97.64
46211;BME280;52144;48.040;-1.594;2023-01-27T05:07:11;102153.25;;;7.34;96.68
46211;BME280;52144;48.040;-1.594;2023-01-27T05:09:39;102159.66;;;7.08;98.44
46211;BME280;52144;48.040;-1.594;2023-01-27T05:12:09;102157.69;;;7.30;96.02
46211;BME280;52144;48.040;-1.594;2023-01-27T05:14:36;102156.13;;;7.11;96.71
46211;BME280;52144;48.040;-1.594;2023-01-27T05:17:04;102161.25;;;7.28;97.60
46211;BME280;52144;48.040;-1.594;2023-01-27T05:19:32;102153.34;;;7.21;96.21
46211;BME280;52144;48.040;-1.594;2023-01-27T05:22:00;102160.44;;;7.22;96.10
46211;BME280;52144;48.040;-1.594;2023-01-27T05:24:28;102150.00;;;7.01;95.99
46211;BME280;52144;48.040;-1.594;2023-01-27T05:26:55;102151.69;;;7.08;96.01
46211;BME280;52144;48.040;-1.594;2023-01-27T05:29:25;102156.97;;;7.11;95.64
46211;BME280;52144;48.040;-1.594;2023-01-27T05:31:53;102152.44;;;7.24;94.30
46211;BME280;52144;48.040;-1.594;2023-01-27T05:34:21;102152.59;;;7.04;94.87
46211;BME280;52144;48.040;-1.594;2023-01-27T05:36:49;102154.28;;;7.17;95.51
46211;BME280;52144;48.040;-1.594;2023-01-27T05:39:17;102146.44;;;7.02;94.06
46211;BME280;52144;48.040;-1.594;2023-01-27T05:41:45;102151.69;;;7.10;94.54
46211;BME280;52144;48.040;-1.594;2023-01-27T05:44:12;102153.41;;;7.15;96.52
46211;BME280;52144;48.040;-1.594;2023-01-27T05:46:42;102149.19;;;6.94;94.26
46211;BME280;52144;48.040;-1.594;2023-01-27T05:49:10;102152.84;;;6.73;95.43
46211;BME280;52144;48.040;-1.594;2023-01-27T05:51:38;102158.03;;;6.90;95.94
46211;BME280;52144;48.040;-1.594;2023-01-27T05:54:06;102145.56;;;7.03;93.53
46211;BME280;52144;48.040;-1.594;2023-01-27T05:56:35;102143.88;;;6.93;93.51
46211;BME280;52144;48.040;-1.594;2023-01-27T05:59:03;102150.25;;;6.67;95.40
46211;BME280;52144;48.040;-1.594;2023-01-27T06:01:32;102145.81;;;6.69;95.23
46211;BME280;52144;48.040;-1.594;2023-01-27T06:04:04;102154.59;;;6.80;94.07
46211;BME280;52144;48.040;-1.594;2023-01-27T06:06:32;102149.25;;;6.85;95.95
46211;BME280;52144;48.040;-1.594;2023-01-27T06:09:01;102148.22;;;7.05;95.59
46211;BME280;52144;48.040;-1.594;2023-01-27T06:11:29;102151.88;;;6.83;96.34
46211;BME280;52144;48.040;-1.594;2023-01-27T06:13:57;102161.53;;;6.94;95.83
46211;BME280;52144;48.040;-1.594;2023-01-27T06:16:25;102149.13;;;6.97;96.34
46211;BME280;52144;48.040;-1.594;2023-01-27T06:18:53;102162.53;;;6.82;95.67
46211;BME280;52144;48.040;-1.594;2023-01-27T06:21:22;102158.06;;;6.87;96.60
46211;BME280;52144;48.040;-1.594;2023-01-27T06:23:50;102156.22;;;6.94;95.00
46211;BME280;52144;48.040;-1.594;2023-01-27T06:26:19;102159.69;;;7.03;95.25
46211;BME280;52144;48.040;-1.594;2023-01-27T06:28:47;102167.69;;;7.00;95.89
46211;BME280;52144;48.040;-1.594;2023-01-27T06:31:17;102161.56;;;6.88;95.64
46211;BME280;52144;48.040;-1.594;2023-01-27T06:33:45;102167.78;;;6.83;94.58
46211;BME280;52144;48.040;-1.594;2023-01-27T06:36:14;102162.56;;;6.74;95.36
46211;BME280;52144;48.040;-1.594;2023-01-27T06:38:44;102160.75;;;6.79;94.75
46211;BME280;52144;48.040;-1.594;2023-01-27T06:41:12;102159.75;;;6.97;92.18
46211;BME280;52144;48.040;-1.594;2023-01-27T06:43:40;102159.81;;;6.88;93.72
46211;BME280;52144;48.040;-1.594;2023-01-27T06:46:08;102165.13;;;6.83;93.11
46211;BME280;52144;48.040;-1.594;2023-01-27T06:48:35;102161.56;;;6.91;94.26
46211;BME280;52144;48.040;-1.594;2023-01-27T06:51:04;102164.13;;;7.00;92.81
46211;BME280;52144;48.040;-1.594;2023-01-27T06:53:32;102162.63;;;6.68;93.37
46211;BME280;52144;48.040;-1.594;2023-01-27T06:56:04;102166.09;;;6.76;92.28
46211;BME280;52144;48.040;-1.594;2023-01-27T06:58:33;102167.00;;;6.71;93.29
46211;BME280;52144;48.040;-1.594;2023-01-27T07:01:02;102167.94;;;6.62;93.37
46211;BME280;52144;48.040;-1.594;2023-01-27T07:03:30;102160.88;;;6.64;93.59
46211;BME280;52144;48.040;-1.594;2023-01-27T07:05:58;102161.59;;;6.86;91.19
46211;BME280;52144;48.040;-1.594;2023-01-27T07:08:26;102162.56;;;6.76;92.77
46211;BME280;52144;48.040;-1.594;2023-01-27T07:10:53;102167.91;;;6.67;91.92
46211;BME280;52144;48.040;-1.594;2023-01-27T07:13:22;102167.88;;;6.73;91.71
46211;BME280;52144;48.040;-1.594;2023-01-27T07:15:53;102164.34;;;6.69;93.94
46211;BME280;52144;48.040;-1.594;2023-01-27T07:18:22;102162.53;;;6.82;91.52
46211;BME280;52144;48.040;-1.594;2023-01-27T07:20:50;102163.59;;;6.47;93.54
46211;BME280;52144;48.040;-1.594;2023-01-27T07:23:18;102166.22;;;6.59;94.34
46211;BME280;52144;48.040;-1.594;2023-01-27T07:25:46;102167.09;;;6.60;92.98
46211;BME280;52144;48.040;-1.594;2023-01-27T07:28:14;102164.34;;;6.72;91.97
46211;BME280;52144;48.040;-1.594;2023-01-27T07:30:43;102167.13;;;6.52;92.18
46211;BME280;52144;48.040;-1.594;2023-01-27T07:33:12;102162.72;;;6.47;93.55
46211;BME280;52144;48.040;-1.594;2023-01-27T07:35:40;102169.00;;;6.30;94.38
46211;BME280;52144;48.040;-1.594;2023-01-27T07:38:09;102168.91;;;6.49;93.16
46211;BME280;52144;48.040;-1.594;2023-01-27T07:40:36;102175.09;;;6.48;94.66
46211;BME280;52144;48.040;-1.594;2023-01-27T07:43:04;102170.63;;;6.54;92.69
46211;BME280;52144;48.040;-1.594;2023-01-27T07:45:32;102166.22;;;6.58;93.88
46211;BME280;52144;48.040;-1.594;2023-01-27T07:48:02;102159.06;;;6.69;94.49
46211;BME280;52144;48.040;-1.594;2023-01-27T07:50:31;102158.31;;;6.52;94.31
46211;BME280;52144;48.040;-1.594;2023-01-27T07:52:59;102162.66;;;6.62;92.21
46211;BME280;52144;48.040;-1.594;2023-01-27T07:55:28;102159.19;;;6.54;95.17
46211;BME280;52144;48.040;-1.594;2023-01-27T07:57:56;102171.53;;;6.50;92.87
46211;BME280;52144;48.040;-1.594;2023-01-27T08:00:25;102168.75;;;6.76;92.76
46211;BME280;52144;48.040;-1.594;2023-01-27T08:02:55;102168.03;;;6.47;92.40
46211;BME280;52144;48.040;-1.594;2023-01-27T08:05:24;102181.19;;;6.59;92.66
46211;BME280;52144;48.040;-1.594;2023-01-27T08:07:53;102173.91;;;6.93;91.51
46211;BME280;52144;48.040;-1.594;2023-01-27T08:10:24;102176.69;;;6.73;92.09
46211;BME280;52144;48.040;-1.594;2023-01-27T08:12:52;102169.63;;;6.75;92.63
46211;BME280;52144;48.040;-1.594;2023-01-27T08:15:20;102170.66;;;6.53;93.19
46211;BME280;52144;48.040;-1.594;2023-01-27T08:17:52;102173.16;;;6.74;92.61
46211;BME280;52144;48.040;-1.594;2023-01-27T08:20:20;102174.19;;;6.47;92.29
46211;BME280;52144;48.040;-1.594;2023-01-27T08:22:50;102164.31;;;6.78;91.94
46211;BME280;52144;48.040;-1.594;2023-01-27T08:25:18;102163.47;;;6.72;91.31
46211;BME280;52144;48.040;-1.594;2023-01-27T08:27:48;102174.72;;;7.00;90.16
46211;BME280;52144;48.040;-1.594;2023-01-27T08:30:17;102165.91;;;6.98;90.90
46211;BME280;52144;48.040;-1.594;2023-01-27T08:32:45;102165.91;;;6.99;89.59
46211;BME280;52144;48.040;-1.594;2023-01-27T08:35:13;102172.00;;;7.11;89.75
46211;BME280;52144;48.040;-1.594;2023-01-27T08:37:41;102174.63;;;7.12;89.78
46211;BME280;52144;48.040;-1.594;2023-01-27T08:40:12;102165.91;;;7.02;92.87
46211;BME280;52144;48.040;-1.594;2023-01-27T08:42:40;102176.28;;;7.29;90.02
46211;BME280;52144;48.040;-1.594;2023-01-27T08:45:08;102164.91;;;7.14;92.12
46211;BME280;52144;48.040;-1.594;2023-01-27T08:47:36;102165.59;;;7.36;90.37
46211;BME280;52144;48.040;-1.594;2023-01-27T08:50:04;102167.44;;;7.30;90.25
46211;BME280;52144;48.040;-1.594;2023-01-27T08:52:32;102163.00;;;7.30;90.22
46211;BME280;52144;48.040;-1.594;2023-01-27T08:55:00;102165.00;;;7.03;90.88
46211;BME280;52144;48.040;-1.594;2023-01-27T08:57:29;102165.00;;;7.02;90.83
46211;BME280;52144;48.040;-1.594;2023-01-27T09:00:01;102171.19;;;7.02;90.66
46211;BME280;52144;48.040;-1.594;2023-01-27T09:02:31;102167.47;;;7.23;90.02
46211;BME280;52144;48.040;-1.594;2023-01-27T09:04:59;102176.50;;;7.01;91.08
46211;BME280;52144;48.040;-1.594;2023-01-27T09:07:27;102163.16;;;7.10;89.56
46211;BME280;52144;48.040;-1.594;2023-01-27T09:09:55;102178.06;;;7.27;90.88
46211;BME280;52144;48.040;-1.594;2023-01-27T09:12:41;102172.78;;;7.20;90.46
46211;BME280;52144;48.040;-1.594;2023-01-27T09:15:10;102173.84;;;6.99;91.58
46211;BME280;52144;48.040;-1.594;2023-01-27T09:17:38;102171.03;;;7.21;90.48
46211;BME280;52144;48.040;-1.594;2023-01-27T09:20:07;102179.56;;;7.55;89.21
46211;BME280;52144;48.040;-1.594;2023-01-27T09:22:37;102184.19;;;7.35;90.08
46211;BME280;52144;48.040;-1.594;2023-01-27T09:25:07;102182.06;;;7.69;89.81
46211;BME280;52144;48.040;-1.594;2023-01-27T09:27:35;102179.63;;;7.49;89.85
46211;BME280;52144;48.040;-1.594;2023-01-27T09:30:08;102185.81;;;7.47;89.66
46211;BME280;52144;48.040;-1.594;2023-01-27T09:32:37;102192.91;;;7.48;90.08
46211;BME280;52144;48.040;-1.594;2023-01-27T09:35:06;102195.59;;;7.43;89.67
46211;BME280;52144;48.040;-1.594;2023-01-27T09:37:37;102185.63;;;7.65;89.59
46211;BME280;52144;48.040;-1.594;2023-01-27T09:40:11;102184.75;;;7.64;90.31
46211;BME280;52144;48.040;-1.594;2023-01-27T09:43:07;102187.66;;;7.38;90.68
46211;BME280;52144;48.040;-1.594;2023-01-27T09:45:56;102191.66;;;7.84;89.11
46211;BME280;52144;48.040;-1.594;2023-01-27T09:48:40;102193.66;;;7.60;89.06
46211;BME280;52144;48.040;-1.594;2023-01-27T09:51:18;102189.38;;;7.44;90.14
46211;BME280;52144;48.040;-1.594;2023-01-27T09:54:05;102194.97;;;7.10;90.52
46211;BME280;52144;48.040;-1.594;2023-01-27T09:56:45;102184.16;;;7.36;89.23
46211;BME280;52144;48.040;-1.594;2023-01-27T09:59:35;102181.59;;;7.26;91.04
46211;BME280;52144;48.040;-1.594;2023-01-27T10:02:17;102195.59;;;7.43;90.02
46211;BME280;52144;48.040;-1.594;2023-01-27T10:07:59;102195.22;;;7.80;88.76
46211;BME280;52144;48.040;-1.594;2023-01-27T10:10:46;102198.31;;;8.17;87.40
46211;BME280;52144;48.040;-1.594;2023-01-27T10:13:27;102192.28;;;8.74;85.83
46211;BME280;52144;48.040;-1.594;2023-01-27T10:16:10;102189.88;;;8.56;84.57
46211;BME280;52144;48.040;-1.594;2023-01-27T10:18:57;102191.50;;;8.68;85.75
46211;BME280;52144;48.040;-1.594;2023-01-27T10:21:34;102184.31;;;8.73;84.14
46211;BME280;52144;48.040;-1.594;2023-01-27T10:24:18;102196.06;;;8.58;84.11
46211;BME280;52144;48.040;-1.594;2023-01-27T10:26:54;102202.38;;;8.49;86.02
46211;BME280;52144;48.040;-1.594;2023-01-27T10:29:32;102198.31;;;8.19;85.26
46211;BME280;52144;48.040;-1.594;2023-01-27T10:32:06;102200.44;;;8.60;83.87
46211;BME280;52144;48.040;-1.594;2023-01-27T10:34:41;102203.94;;;8.64;85.91
46211;BME280;52144;48.040;-1.594;2023-01-27T10:37:20;102195.38;;;8.43;87.42
46211;BME280;52144;48.040;-1.594;2023-01-27T10:40:01;102199.03;;;8.30;86.92
46211;BME280;52144;48.040;-1.594;2023-01-27T10:42:35;102197.16;;;8.41;87.11
46211;BME280;52144;48.040;-1.594;2023-01-27T10:45:15;102193.28;;;8.67;84.92
46211;BME280;52144;48.040;-1.594;2023-01-27T10:48:00;102191.22;;;8.84;84.80
46211;BME280;52144;48.040;-1.594;2023-01-27T10:50:34;102192.19;;;8.80;84.61
46211;BME280;52144;48.040;-1.594;2023-01-27T10:53:09;102190.84;;;8.52;85.64
46211;BME280;52144;48.040;-1.594;2023-01-27T10:55:42;102186.34;;;8.57;86.32
46211;BME280;52144;48.040;-1.594;2023-01-27T10:58:17;102192.66;;;8.47;87.14
46211;BME280;52144;48.040;-1.594;2023-01-27T11:00:50;102194.75;;;8.20;87.19
46211;BME280;52144;48.040;-1.594;2023-01-27T11:03:43;102190.56;;;8.70;87.42
46211;BME280;52144;48.040;-1.594;2023-01-27T11:06:19;102186.75;;;8.24;86.29
46211;BME280;52144;48.040;-1.594;2023-01-27T11:08:50;102178.56;;;8.41;86.74
46211;BME280;52144;48.040;-1.594;2023-01-27T11:11:21;102177.25;;;8.73;85.49
46211;BME280;52144;48.040;-1.594;2023-01-27T11:14:13;102179.91;;;8.73;84.36
46211;BME280;52144;48.040;-1.594;2023-01-27T11:16:47;102189.41;;;8.90;85.71
46211;BME280;52144;48.040;-1.594;2023-01-27T11:19:22;102180.72;;;8.77;85.64
46211;BME280;52144;48.040;-1.594;2023-01-27T11:21:54;102187.72;;;8.84;85.76
46211;BME280;52144;48.040;-1.594;2023-01-27T11:24:40;102186.22;;;8.64;85.92
46211;BME280;52144;48.040;-1.594;2023-01-27T11:27:15;102180.91;;;8.64;85.60
46211;BME280;52144;48.040;-1.594;2023-01-27T11:29:51;102179.22;;;8.59;85.17
46211;BME280;52144;48.040;-1.594;2023-01-27T11:32:31;102176.47;;;8.65;85.60
46211;BME280;52144;48.040;-1.594;2023-01-27T11:35:04;102171.75;;;8.86;83.69
46211;BME280;52144;48.040;-1.594;2023-01-27T11:37:36;102172.13;;;8.61;85.30
46211;BME280;52144;48.040;-1.594;2023-01-27T11:40:13;102177.00;;;8.89;85.00
46211;BME280;52144;48.040;-1.594;2023-01-27T11:42:42;102167.47;;;8.75;85.17
46211;BME280;52144;48.040;-1.594;2023-01-27T11:45:14;102176.88;;;8.98;86.36
46211;BME280;52144;48.040;-1.594;2023-01-27T11:47:45;102173.28;;;9.00;84.80
46211;BME280;52144;48.040;-1.594;2023-01-27T11:50:14;102160.91;;;8.98;84.38
46211;BME280;52144;48.040;-1.594;2023-01-27T11:52:48;102151.66;;;9.22;81.87
46211;BME280;52144;48.040;-1.594;2023-01-27T11:55:18;102155.47;;;9.55;83.22
46211;BME280;52144;48.040;-1.594;2023-01-27T11:57:50;102149.38;;;8.97;84.01
46211;BME280;52144;48.040;-1.594;2023-01-27T12:00:21;102149.03;;;9.17;84.23
46211;BME280;52144;48.040;-1.594;2023-01-27T12:02:59;102144.09;;;8.96;84.28
46211;BME280;52144;48.040;-1.594;2023-01-27T12:05:33;102146.03;;;8.86;85.67
46211;BME280;52144;48.040;-1.594;2023-01-27T12:08:03;102146.13;;;8.81;87.65
46211;BME280;52144;48.040;-1.594;2023-01-27T12:10:33;102146.97;;;8.83;87.97
46211;BME280;52144;48.040;-1.594;2023-01-27T12:13:07;102141.97;;;8.62;88.22
46211;BME280;52144;48.040;-1.594;2023-01-27T12:15:36;102150.06;;;8.53;91.35
46211;BME280;52144;48.040;-1.594;2023-01-27T12:18:11;102141.63;;;8.21;91.44
46211;BME280;52144;48.040;-1.594;2023-01-27T12:20:42;102136.56;;;8.68;91.49
46211;BME280;52144;48.040;-1.594;2023-01-27T12:23:19;102133.13;;;8.61;91.42
46211;BME280;52144;48.040;-1.594;2023-01-27T12:25:51;102128.50;;;8.73;91.32
46211;BME280;52144;48.040;-1.594;2023-01-27T12:28:26;102128.50;;;8.74;92.46
46211;BME280;52144;48.040;-1.594;2023-01-27T12:31:03;102127.94;;;8.54;92.46
46211;BME280;52144;48.040;-1.594;2023-01-27T12:33:33;102131.97;;;8.79;92.30
46211;BME280;52144;48.040;-1.594;2023-01-27T12:36:09;102127.41;;;8.88;92.49
46211;BME280;52144;48.040;-1.594;2023-01-27T12:38:44;102120.53;;;9.26;91.74
46211;BME280;52144;48.040;-1.594;2023-01-27T12:41:20;102123.84;;;8.87;91.84
46211;BME280;52144;48.040;-1.594;2023-01-27T12:43:52;102109.16;;;8.64;92.52
46211;BME280;52144;48.040;-1.594;2023-01-27T12:46:22;102114.53;;;9.14;93.52
46211;BME280;52144;48.040;-1.594;2023-01-27T12:48:52;102112.03;;;9.05;95.00
46211;BME280;52144;48.040;-1.594;2023-01-27T12:51:22;102112.69;;;9.18;95.67
46211;BME280;52144;48.040;-1.594;2023-01-27T12:54:19;102107.03;;;8.85;94.90
46211;BME280;52144;48.040;-1.594;2023-01-27T12:56:49;102106.19;;;8.83;94.75
46211;BME280;52144;48.040;-1.594;2023-01-27T12:59:19;102106.69;;;9.08;94.72
46211;BME280;52144;48.040;-1.594;2023-01-27T13:02:00;102101.28;;;9.11;95.17
46211;BME280;52144;48.040;-1.594;2023-01-27T13:04:29;102091.47;;;8.62;95.21
46211;BME280;52144;48.040;-1.594;2023-01-27T13:07:04;102089.78;;;9.09;94.34
46211;BME280;52144;48.040;-1.594;2023-01-27T13:09:38;102086.63;;;8.89;94.80
46211;BME280;52144;48.040;-1.594;2023-01-27T13:12:14;102089.25;;;8.92;94.27